Time;durP1;ratioP1;P1;durP2;ratioP2;P2;SDS_P1;SDS_P2;PMS_P1;PMS_P2;Temp;Humidity;BMP_temperature;BMP_pressure;BME280_temperature;BME280_humidity;BME280_pressure;Samples;Min_cycle;Max_cycle;Signal;HPM_P1;HPM_P2
2021/12/19 00:00:33;;;;;;;4.78;2.20;;;;;;;;;;5069288;28;20037;-66
2021/12/19 00:10:57;;;;;;;3.22;2.20;;;;;;;;;;5068880;28;20041;-66
2021/12/19 00:13:25;;;;;;;4.82;2.47;;;;;;;;;;5068362;28;20402;-66
2021/12/19 00:15:51;;;;;;;6.38;3.00;;;;;;;;;;5066856;28;20051;-66
2021/12/19 00:18:17;;;;;;;9.65;2.75;;;;;;;;;;5065313;28;20522;-66
2021/12/19 00:20:44;;;;;;;3.90;1.98;;;;;;;;;;5067933;28;20036;-66
2021/12/19 00:23:11;;;;;;;2.65;1.48;;;;;;;;;;5071230;28;20044;-66
2021/12/19 00:25:37;;;;;;;4.35;1.55;;;;;;;;;;5066124;28;20058;-65
2021/12/19 00:28:03;;;;;;;3.70;1.50;;;;;;;;;;5068298;28;20648;-66
2021/12/19 00:30:29;;;;;;;2.60;1.63;;;;;;;;;;5063367;28;20041;-66
2021/12/19 00:32:55;;;;;;;3.10;1.42;;;;;;;;;;5066217;28;20036;-66
2021/12/19 00:35:22;;;;;;;2.40;0.93;;;;;;;;;;5066305;28;20360;-66
2021/12/19 00:37:48;;;;;;;4.88;1.70;;;;;;;;;;5068497;28;20068;-66
2021/12/19 00:40:15;;;;;;;5.50;1.98;;;;;;;;;;5065899;28;20044;-66
2021/12/19 00:42:42;;;;;;;4.38;1.92;;;;;;;;;;5062536;28;20115;-66
2021/12/19 00:45:20;;;;;;;3.72;1.95;;;;;;;;;;5066989;28;20865;-66
2021/12/19 00:47:47;;;;;;;4.47;1.40;;;;;;;;;;5062021;28;20041;-67
2021/12/19 00:50:13;;;;;;;2.08;1.15;;;;;;;;;;5068385;28;20047;-67
2021/12/19 00:52:40;;;;;;;4.15;1.70;;;;;;;;;;5068139;28;20043;-66
2021/12/19 00:55:07;;;;;;;4.03;1.73;;;;;;;;;;5066981;28;20055;-66
2021/12/19 00:57:33;;;;;;;3.58;1.80;;;;;;;;;;5067593;28;20497;-65
2021/12/19 00:59:59;;;;;;;3.65;2.03;;;;;;;;;;5066909;28;20102;-66
2021/12/19 01:02:25;;;;;;;1.92;0.98;;;;;;;;;;5066194;28;20143;-66
2021/12/19 01:04:52;;;;;;;4.53;1.90;;;;;;;;;;5070875;28;20126;-66
2021/12/19 01:07:18;;;;;;;2.75;1.27;;;;;;;;;;5066368;28;20040;-65
2021/12/19 01:09:44;;;;;;;2.50;1.45;;;;;;;;;;5067123;28;20032;-67
2021/12/19 01:12:10;;;;;;;5.40;2.30;;;;;;;;;;5059849;28;20049;-66
2021/12/19 01:14:37;;;;;;;3.45;1.42;;;;;;;;;;5062314;28;20048;-67
2021/12/19 01:17:04;;;;;;;2.35;1.33;;;;;;;;;;5065953;28;20386;-66
2021/12/19 01:19:30;;;;;;;4.38;1.60;;;;;;;;;;5067881;28;20439;-66
2021/12/19 01:21:56;;;;;;;3.78;1.40;;;;;;;;;;5065347;28;20039;-67
2021/12/19 01:24:22;;;;;;;3.63;1.77;;;;;;;;;;5064437;28;20072;-66
2021/12/19 01:26:49;;;;;;;3.22;2.00;;;;;;;;;;5068673;28;20074;-66
2021/12/19 01:29:15;;;;;;;2.03;1.30;;;;;;;;;;5064992;28;20056;-66
2021/12/19 01:31:41;;;;;;;2.83;1.50;;;;;;;;;;5065458;28;20049;-66
2021/12/19 01:34:12;;;;;;;3.38;1.30;;;;;;;;;;5069289;28;20045;-66
2021/12/19 01:36:39;;;;;;;2.08;1.33;;;;;;;;;;5066508;28;20079;-65
2021/12/19 01:39:05;;;;;;;2.30;1.48;;;;;;;;;;5068348;28;20162;-66
2021/12/19 01:41:31;;;;;;;4.13;1.52;;;;;;;;;;5066360;28;20508;-66
2021/12/19 01:43:57;;;;;;;3.10;1.25;;;;;;;;;;5062211;28;20032;-66
2021/12/19 01:46:23;;;;;;;3.70;1.15;;;;;;;;;;5060117;28;20068;-66
2021/12/19 01:48:49;;;;;;;4.43;1.40;;;;;;;;;;5049898;28;20390;-67
2021/12/19 01:51:16;;;;;;;3.70;1.63;;;;;;;;;;5072633;28;20036;-67
2021/12/19 01:53:42;;;;;;;3.35;1.15;;;;;;;;;;5063695;28;20047;-66
2021/12/19 01:56:09;;;;;;;3.05;1.10;;;;;;;;;;5067100;28;20036;-66
2021/12/19 01:58:37;;;;;;;4.47;1.88;;;;;;;;;;5059284;28;20047;-66
2021/12/19 02:01:04;;;;;;;2.80;1.50;;;;;;;;;;5063399;28;20040;-66
2021/12/19 02:03:30;;;;;;;3.53;1.77;;;;;;;;;;5094821;28;20044;-66
2021/12/19 02:05:56;;;;;;;2.55;1.50;;;;;;;;;;5077519;28;20450;-67
2021/12/19 02:08:22;;;;;;;5.50;2.63;;;;;;;;;;5064222;28;20044;-67
2021/12/19 02:10:48;;;;;;;4.45;1.60;;;;;;;;;;5063289;28;20395;-66
2021/12/19 02:13:15;;;;;;;3.50;1.65;;;;;;;;;;5065926;28;20437;-67
2021/12/19 02:15:42;;;;;;;2.53;1.30;;;;;;;;;;5066023;28;20131;-67
2021/12/19 02:18:13;;;;;;;4.32;1.35;;;;;;;;;;5059752;28;20071;-66
2021/12/19 02:20:46;;;;;;;2.15;0.82;;;;;;;;;;5068220;28;20037;-67
2021/12/19 02:23:13;;;;;;;0.77;0.40;;;;;;;;;;5062689;28;20037;-66
2021/12/19 02:25:39;;;;;;;3.15;1.10;;;;;;;;;;5063754;28;20086;-66
2021/12/19 02:28:09;;;;;;;2.75;0.70;;;;;;;;;;5048479;28;20044;-67
2021/12/19 02:30:36;;;;;;;2.17;0.80;;;;;;;;;;5049528;28;20403;-67
2021/12/19 02:33:02;;;;;;;1.55;0.80;;;;;;;;;;5065311;28;20041;-66
2021/12/19 02:35:32;;;;;;;2.30;1.05;;;;;;;;;;5063921;28;20044;-66
2021/12/19 02:48:20;;;;;;;3.30;1.10;;;;;;;;;;5066247;28;20439;-66
2021/12/19 02:50:51;;;;;;;3.13;1.48;;;;;;;;;;5067506;28;20040;-67
2021/12/19 02:53:20;;;;;;;2.53;1.35;;;;;;;;;;5051000;28;20040;-66
2021/12/19 02:55:46;;;;;;;2.83;1.38;;;;;;;;;;5062216;28;20131;-66
2021/12/19 02:58:12;;;;;;;3.47;1.60;;;;;;;;;;5063502;28;20033;-67
2021/12/19 03:00:38;;;;;;;2.75;1.15;;;;;;;;;;5071925;28;20038;-67
2021/12/19 03:03:05;;;;;;;2.65;1.48;;;;;;;;;;5068883;28;20494;-66
2021/12/19 03:05:32;;;;;;;4.13;1.90;;;;;;;;;;5071341;28;20048;-66
2021/12/19 03:08:00;;;;;;;5.05;1.92;;;;;;;;;;5070354;28;20111;-66
2021/12/19 03:13:26;;;;;;;4.22;1.50;;;;;;;;;;5069683;28;20494;-66
2021/12/19 03:18:39;;;;;;;4.65;1.10;;;;;;;;;;5068966;28;20536;-66
2021/12/19 03:21:06;;;;;;;2.15;1.05;;;;;;;;;;5069613;28;20308;-67
2021/12/19 03:23:32;;;;;;;3.63;1.58;;;;;;;;;;5103572;27;20052;-66
2021/12/19 03:25:58;;;;;;;3.28;1.15;;;;;;;;;;5052891;28;20032;-66
2021/12/19 03:28:25;;;;;;;6.68;1.30;;;;;;;;;;5069921;28;20043;-66
2021/12/19 03:30:51;;;;;;;2.90;1.23;;;;;;;;;;5070886;28;20131;-66
2021/12/19 03:33:17;;;;;;;2.47;0.90;;;;;;;;;;5066466;28;20033;-66
2021/12/19 03:35:44;;;;;;;2.90;1.08;;;;;;;;;;5061127;28;20136;-66
2021/12/19 03:38:12;;;;;;;6.55;1.52;;;;;;;;;;5071713;28;20059;-66
2021/12/19 03:40:39;;;;;;;2.42;1.20;;;;;;;;;;5068928;28;20037;-67
2021/12/19 03:43:11;;;;;;;3.35;1.30;;;;;;;;;;5066413;28;20391;-66
2021/12/19 03:45:38;;;;;;;7.03;2.03;;;;;;;;;;5069303;28;20159;-67
2021/12/19 03:48:04;;;;;;;5.18;1.90;;;;;;;;;;5074201;28;20072;-67
2021/12/19 03:50:35;;;;;;;6.30;2.10;;;;;;;;;;5066566;28;20448;-66
2021/12/19 03:53:01;;;;;;;2.92;1.23;;;;;;;;;;5068294;28;20116;-66
2021/12/19 03:55:28;;;;;;;5.53;1.73;;;;;;;;;;5065998;28;20062;-66
2021/12/19 03:57:57;;;;;;;1.95;1.10;;;;;;;;;;5070518;28;20045;-66
2021/12/19 04:00:25;;;;;;;6.40;1.40;;;;;;;;;;5060993;28;20032;-66
2021/12/19 04:02:54;;;;;;;6.63;1.70;;;;;;;;;;5067068;28;20119;-66
2021/12/19 04:05:20;;;;;;;3.40;1.90;;;;;;;;;;5067090;28;20113;-66
2021/12/19 04:07:46;;;;;;;4.47;1.60;;;;;;;;;;5054824;28;20048;-66
2021/12/19 04:10:12;;;;;;;5.10;1.40;;;;;;;;;;5066730;28;20040;-67
2021/12/19 04:12:42;;;;;;;3.22;1.05;;;;;;;;;;5070709;28;20044;-66
2021/12/19 04:15:11;;;;;;;6.47;1.80;;;;;;;;;;5062115;28;20095;-66
2021/12/19 04:17:39;;;;;;;2.78;1.20;;;;;;;;;;5065878;28;20040;-66
2021/12/19 04:20:07;;;;;;;5.18;1.73;;;;;;;;;;5068913;28;20048;-67
2021/12/19 04:22:33;;;;;;;7.03;1.95;;;;;;;;;;5067738;28;20036;-66
2021/12/19 04:24:59;;;;;;;4.05;1.80;;;;;;;;;;5068743;28;20556;-66
2021/12/19 04:27:26;;;;;;;3.17;1.60;;;;;;;;;;5067331;28;20071;-67
2021/12/19 04:29:53;;;;;;;4.15;2.22;;;;;;;;;;5059074;28;20605;-66
2021/12/19 04:32:25;;;;;;;5.78;2.15;;;;;;;;;;5048279;28;20131;-66
2021/12/19 04:34:51;;;;;;;11.55;2.90;;;;;;;;;;5066864;28;20781;-66
2021/12/19 04:51:25;;;;;;;11.38;5.18;;;;;;;;;;5094792;27;20052;-66
2021/12/19 04:56:30;;;;;;;12.05;5.15;;;;;;;;;;5064873;28;20059;-66
2021/12/19 04:59:47;;;;;;;13.75;4.30;;;;;;;;;;5073847;28;20048;-66
2021/12/19 05:15:25;;;;;;;11.48;5.55;;;;;;;;;;5062688;28;20056;-66
2021/12/19 05:17:53;;;;;;;11.75;5.13;;;;;;;;;;5061188;28;20037;-66
2021/12/19 05:20:23;;;;;;;20.98;7.05;;;;;;;;;;5069110;28;20040;-67
2021/12/19 05:22:52;;;;;;;13.32;5.88;;;;;;;;;;5065181;28;20154;-66
2021/12/19 05:25:18;;;;;;;16.33;7.53;;;;;;;;;;5068341;28;20040;-66
2021/12/19 05:27:46;;;;;;;16.92;8.05;;;;;;;;;;5051067;28;20418;-66
2021/12/19 05:30:13;;;;;;;22.40;8.10;;;;;;;;;;5059644;28;20048;-66
2021/12/19 05:32:40;;;;;;;20.58;9.90;;;;;;;;;;5067937;28;20032;-67
2021/12/19 05:35:07;;;;;;;16.38;8.60;;;;;;;;;;5066854;28;20060;-67
2021/12/19 05:45:48;;;;;;;26.15;9.93;;;;;;;;;;5058106;28;20060;-66
2021/12/19 05:48:14;;;;;;;25.20;10.55;;;;;;;;;;5058743;28;20237;-66
2021/12/19 05:50:40;;;;;;;24.10;11.52;;;;;;;;;;5063245;28;20048;-67
2021/12/19 05:53:06;;;;;;;25.25;10.55;;;;;;;;;;5029626;28;20563;-66
2021/12/19 05:55:32;;;;;;;19.63;8.13;;;;;;;;;;5062340;28;20171;-66
2021/12/19 05:57:59;;;;;;;24.20;10.05;;;;;;;;;;5064817;28;20105;-66
2021/12/19 06:00:25;;;;;;;23.48;8.02;;;;;;;;;;5064167;28;20044;-66
2021/12/19 06:02:51;;;;;;;13.73;5.68;;;;;;;;;;5066849;28;20041;-66
2021/12/19 06:05:17;;;;;;;12.40;4.75;;;;;;;;;;5060523;28;20045;-67
2021/12/19 06:07:43;;;;;;;9.48;5.22;;;;;;;;;;5042383;28;20039;-66
2021/12/19 06:10:10;;;;;;;13.13;4.18;;;;;;;;;;5062620;28;20040;-65
2021/12/19 06:12:39;;;;;;;13.40;5.18;;;;;;;;;;5064122;28;20036;-65
2021/12/19 06:15:08;;;;;;;8.65;3.88;;;;;;;;;;5061490;28;20043;-66
2021/12/19 06:17:35;;;;;;;10.98;4.22;;;;;;;;;;5069530;28;20348;-66
2021/12/19 06:20:01;;;;;;;10.57;4.80;;;;;;;;;;5064698;28;20041;-66
2021/12/19 06:22:27;;;;;;;10.75;4.88;;;;;;;;;;5063566;28;20044;-66
2021/12/19 06:24:53;;;;;;;9.00;4.15;;;;;;;;;;5069297;28;20043;-66
2021/12/19 06:27:19;;;;;;;12.93;5.75;;;;;;;;;;5063294;28;20021;-66
2021/12/19 06:29:45;;;;;;;11.48;4.22;;;;;;;;;;5065293;28;20322;-66
2021/12/19 06:32:11;;;;;;;13.40;4.93;;;;;;;;;;5067406;28;20047;-66
2021/12/19 06:34:38;;;;;;;15.32;5.40;;;;;;;;;;5040687;28;20067;-66
2021/12/19 06:37:08;;;;;;;14.23;4.38;;;;;;;;;;5058936;28;20110;-66
2021/12/19 06:39:35;;;;;;;14.25;4.90;;;;;;;;;;5093654;28;20044;-66
2021/12/19 06:42:01;;;;;;;13.70;5.85;;;;;;;;;;5088492;27;20040;-66
2021/12/19 06:44:27;;;;;;;13.15;4.95;;;;;;;;;;5040550;28;20144;-66
2021/12/19 06:46:54;;;;;;;18.73;6.28;;;;;;;;;;5059570;28;20111;-66
2021/12/19 06:49:20;;;;;;;17.55;5.82;;;;;;;;;;5064083;28;20037;-65
2021/12/19 06:51:46;;;;;;;11.57;6.40;;;;;;;;;;5067108;28;20040;-66
2021/12/19 06:54:12;;;;;;;12.20;5.95;;;;;;;;;;5064479;28;20044;-66
2021/12/19 06:56:38;;;;;;;18.20;6.18;;;;;;;;;;5048804;28;20037;-66
2021/12/19 06:59:04;;;;;;;17.33;5.90;;;;;;;;;;5068248;28;20431;-66
2021/12/19 07:01:31;;;;;;;12.50;4.55;;;;;;;;;;5061449;28;20028;-66
2021/12/19 07:03:57;;;;;;;16.23;4.03;;;;;;;;;;5067743;28;20125;-66
2021/12/19 07:06:23;;;;;;;9.55;4.18;;;;;;;;;;5066067;28;20437;-68
2021/12/19 07:08:49;;;;;;;9.57;3.90;;;;;;;;;;5064526;28;20094;-66
2021/12/19 07:11:15;;;;;;;8.52;3.63;;;;;;;;;;5067638;28;20106;-66
2021/12/19 07:13:42;;;;;;;9.43;3.80;;;;;;;;;;5065684;28;20663;-66
2021/12/19 07:16:08;;;;;;;10.25;3.45;;;;;;;;;;5063454;28;20048;-66
2021/12/19 07:18:36;;;;;;;8.20;2.22;;;;;;;;;;5065478;28;20045;-66
2021/12/19 07:21:03;;;;;;;8.80;3.05;;;;;;;;;;5095527;28;20509;-66
2021/12/19 07:23:30;;;;;;;11.77;2.85;;;;;;;;;;5062691;28;20056;-67
2021/12/19 07:25:57;;;;;;;8.25;3.47;;;;;;;;;;5062603;28;20043;-67
2021/12/19 07:28:23;;;;;;;7.45;3.47;;;;;;;;;;5064850;28;20397;-67
2021/12/19 07:30:49;;;;;;;8.98;2.95;;;;;;;;;;5065310;28;20032;-67
2021/12/19 07:33:17;;;;;;;6.75;2.55;;;;;;;;;;5069237;28;20029;-68
2021/12/19 07:35:47;;;;;;;4.30;2.33;;;;;;;;;;5064218;28;20061;-67
2021/12/19 07:38:22;;;;;;;11.00;3.50;;;;;;;;;;5065591;28;20112;-67
2021/12/19 07:40:50;;;;;;;5.43;2.80;;;;;;;;;;5067479;28;20043;-67
2021/12/19 07:43:17;;;;;;;9.65;3.05;;;;;;;;;;5066856;28;20501;-67
2021/12/19 07:45:43;;;;;;;10.07;2.95;;;;;;;;;;5061775;28;20154;-67
2021/12/19 07:48:09;;;;;;;7.20;2.92;;;;;;;;;;5067373;28;20394;-67
2021/12/19 07:50:35;;;;;;;11.38;3.30;;;;;;;;;;5095641;28;20079;-68
2021/12/19 07:53:03;;;;;;;9.60;3.00;;;;;;;;;;5067936;28;20036;-67
2021/12/19 07:55:29;;;;;;;10.48;4.22;;;;;;;;;;5098842;28;20044;-67
2021/12/19 07:57:56;;;;;;;14.30;4.15;;;;;;;;;;5061538;28;20036;-67
2021/12/19 08:00:22;;;;;;;10.25;4.72;;;;;;;;;;5081272;28;20044;-67
2021/12/19 08:02:49;;;;;;;11.40;5.03;;;;;;;;;;5069756;28;20418;-67
2021/12/19 08:05:15;;;;;;;9.25;3.58;;;;;;;;;;5064135;28;20040;-67
2021/12/19 08:07:43;;;;;;;14.15;4.75;;;;;;;;;;5070866;28;20076;-67
2021/12/19 08:12:36;;;;;;;12.65;5.13;;;;;;;;;;5061592;28;20482;-67
2021/12/19 08:15:03;;;;;;;18.35;4.97;;;;;;;;;;5069736;28;20131;-67
2021/12/19 08:17:31;;;;;;;14.30;4.93;;;;;;;;;;5069928;28;20237;-67
2021/12/19 08:19:57;;;;;;;14.98;5.60;;;;;;;;;;5065161;28;20072;-67
2021/12/19 08:22:24;;;;;;;14.68;4.97;;;;;;;;;;5069815;28;20037;-67
2021/12/19 08:24:50;;;;;;;11.18;5.07;;;;;;;;;;5068661;28;20547;-67
2021/12/19 08:27:17;;;;;;;10.02;4.55;;;;;;;;;;5068380;28;20422;-67
2021/12/19 08:29:43;;;;;;;16.65;5.22;;;;;;;;;;5084790;28;20075;-67
2021/12/19 08:32:09;;;;;;;14.82;4.25;;;;;;;;;;5071364;28;20036;-67
2021/12/19 08:34:36;;;;;;;11.43;4.15;;;;;;;;;;5068619;28;20525;-67
2021/12/19 08:37:03;;;;;;;12.50;4.38;;;;;;;;;;5066590;28;20518;-67
2021/12/19 08:39:31;;;;;;;8.52;4.28;;;;;;;;;;5063223;28;20044;-68
2021/12/19 08:41:58;;;;;;;14.02;4.30;;;;;;;;;;5058406;28;20049;-68
2021/12/19 08:44:24;;;;;;;19.38;4.60;;;;;;;;;;5064816;28;20035;-67
2021/12/19 08:46:50;;;;;;;9.30;3.90;;;;;;;;;;5057463;28;20041;-67
2021/12/19 08:49:16;;;;;;;15.10;3.70;;;;;;;;;;5066805;28;20093;-67
2021/12/19 08:51:42;;;;;;;9.85;3.13;;;;;;;;;;5061696;28;20033;-67
2021/12/19 08:54:09;;;;;;;15.35;4.20;;;;;;;;;;5095151;27;20072;-67
2021/12/19 08:56:35;;;;;;;6.07;2.83;;;;;;;;;;5063366;28;20043;-67
2021/12/19 08:59:02;;;;;;;5.97;2.97;;;;;;;;;;5094475;27;20051;-67
2021/12/19 09:01:28;;;;;;;9.73;3.15;;;;;;;;;;5061008;28;20523;-67
2021/12/19 09:03:54;;;;;;;9.88;3.33;;;;;;;;;;5065086;28;20091;-68
2021/12/19 09:06:21;;;;;;;9.50;3.03;;;;;;;;;;5063560;28;20119;-67
2021/12/19 09:08:47;;;;;;;13.82;4.22;;;;;;;;;;5058314;28;20037;-67
2021/12/19 09:11:13;;;;;;;10.63;3.42;;;;;;;;;;5048294;28;20126;-68
2021/12/19 09:13:39;;;;;;;14.60;4.53;;;;;;;;;;5064625;28;20045;-67
2021/12/19 09:16:05;;;;;;;10.65;3.03;;;;;;;;;;5059192;28;20044;-67
2021/12/19 09:18:32;;;;;;;8.77;2.67;;;;;;;;;;5059890;28;20120;-67
2021/12/19 09:20:58;;;;;;;10.00;4.07;;;;;;;;;;5058072;28;20445;-67
2021/12/19 09:23:24;;;;;;;9.35;2.90;;;;;;;;;;5056321;28;20049;-67
2021/12/19 09:25:50;;;;;;;9.75;2.80;;;;;;;;;;5091841;28;20047;-67
2021/12/19 09:28:18;;;;;;;7.88;2.90;;;;;;;;;;5056203;28;20098;-65
2021/12/19 09:30:44;;;;;;;10.18;3.08;;;;;;;;;;5045749;28;20386;-65
2021/12/19 09:33:10;;;;;;;11.45;4.10;;;;;;;;;;5059468;28;20079;-65
2021/12/19 09:35:36;;;;;;;21.05;3.92;;;;;;;;;;5057551;28;20106;-65
2021/12/19 09:38:03;;;;;;;7.93;3.80;;;;;;;;;;5062697;28;20126;-65
2021/12/19 09:40:35;;;;;;;10.95;4.22;;;;;;;;;;5046162;28;20051;-65
2021/12/19 09:43:21;;;;;;;8.30;3.60;;;;;;;;;;5061350;28;20040;-65
2021/12/19 09:45:52;;;;;;;12.90;3.22;;;;;;;;;;5060263;28;20529;-65
2021/12/19 09:48:18;;;;;;;10.70;4.40;;;;;;;;;;5057782;28;20040;-65
2021/12/19 09:50:45;;;;;;;13.15;4.43;;;;;;;;;;5094911;27;20393;-65
2021/12/19 09:53:11;;;;;;;11.05;4.00;;;;;;;;;;5065222;28;20126;-65
2021/12/19 09:55:37;;;;;;;13.75;3.90;;;;;;;;;;5059459;28;20394;-66
2021/12/19 09:58:03;;;;;;;15.00;4.05;;;;;;;;;;5060083;28;20590;-66
2021/12/19 10:00:29;;;;;;;13.25;4.70;;;;;;;;;;5092126;28;20036;-65
2021/12/19 10:02:55;;;;;;;17.70;4.35;;;;;;;;;;5060433;28;20120;-65
2021/12/19 10:05:23;;;;;;;16.20;5.10;;;;;;;;;;5062762;28;20052;-65
2021/12/19 10:07:51;;;;;;;13.00;4.00;;;;;;;;;;5058733;28;20045;-65
2021/12/19 10:10:26;;;;;;;11.48;4.28;;;;;;;;;;5059587;28;20619;-66
2021/12/19 10:12:53;;;;;;;15.00;4.43;;;;;;;;;;5095036;28;20593;-65
2021/12/19 10:15:34;;;;;;;9.65;4.32;;;;;;;;;;5054786;28;20063;-65
2021/12/19 10:18:04;;;;;;;7.38;4.00;;;;;;;;;;5058041;28;20032;-65
2021/12/19 10:20:48;;;;;;;17.63;4.05;;;;;;;;;;5058767;28;20405;-66
2021/12/19 10:23:14;;;;;;;;;;;;;;;;;;5057629;28;20122;-65
2021/12/19 10:25:40;;;;;;;12.65;3.47;;;;;;;;;;5057678;28;19924;-65
2021/12/19 10:28:09;;;;;;;10.98;4.15;;;;;;;;;;5043371;28;20608;-67
2021/12/19 10:30:35;;;;;;;14.23;4.47;;;;;;;;;;5060406;28;20116;-67
2021/12/19 10:33:24;;;;;;;7.63;3.13;;;;;;;;;;5060876;28;20099;-67
2021/12/19 10:35:53;;;;;;;8.65;3.63;;;;;;;;;;5061006;28;20142;-65
2021/12/19 10:38:19;;;;;;;11.18;4.63;;;;;;;;;;5054035;28;20509;-65
2021/12/19 10:40:48;;;;;;;13.20;5.30;;;;;;;;;;5061572;28;20044;-65
2021/12/19 10:43:16;;;;;;;17.40;4.50;;;;;;;;;;5063002;28;20041;-65
2021/12/19 10:45:47;;;;;;;8.00;3.95;;;;;;;;;;5059981;28;20062;-65
2021/12/19 10:48:19;;;;;;;17.38;4.65;;;;;;;;;;5059653;28;20044;-65
2021/12/19 10:50:45;;;;;;;13.88;4.70;;;;;;;;;;5060548;28;20044;-65
2021/12/19 10:53:12;;;;;;;18.70;4.93;;;;;;;;;;5097737;28;20040;-66
2021/12/19 10:55:40;;;;;;;17.10;5.22;;;;;;;;;;5058593;28;20475;-65
2021/12/19 10:58:18;;;;;;;11.90;5.18;;;;;;;;;;5091400;28;20335;-66
2021/12/19 11:00:53;;;;;;;18.13;4.47;;;;;;;;;;5055027;28;20506;-66
2021/12/19 11:03:33;;;;;;;8.45;3.60;;;;;;;;;;5063708;28;20150;-65
2021/12/19 11:05:59;;;;;;;11.05;3.25;;;;;;;;;;5059836;28;20094;-65
2021/12/19 11:08:32;;;;;;;11.43;3.33;;;;;;;;;;5054548;28;20044;-66
2021/12/19 11:10:58;;;;;;;10.77;3.33;;;;;;;;;;5041572;28;20124;-66
2021/12/19 11:13:24;;;;;;;14.00;3.30;;;;;;;;;;5057593;28;20040;-66
2021/12/19 11:15:51;;;;;;;11.45;3.03;;;;;;;;;;5057806;28;20509;-66
2021/12/19 11:18:17;;;;;;;8.55;2.95;;;;;;;;;;5065100;28;20047;-66
2021/12/19 11:20:43;;;;;;;15.63;3.60;;;;;;;;;;5061863;28;20072;-66
2021/12/19 11:23:09;;;;;;;11.65;3.05;;;;;;;;;;5062305;28;20123;-66
2021/12/19 11:25:38;;;;;;;8.70;3.13;;;;;;;;;;5068151;28;20037;-66
2021/12/19 11:28:05;;;;;;;11.25;3.40;;;;;;;;;;5060908;28;20445;-66
2021/12/19 11:30:31;;;;;;;11.10;3.97;;;;;;;;;;5062231;28;20041;-66
2021/12/19 11:33:12;;;;;;;10.32;3.30;;;;;;;;;;5063139;28;20090;-66
2021/12/19 11:35:41;;;;;;;8.65;3.33;;;;;;;;;;5065036;28;20102;-66
2021/12/19 11:38:09;;;;;;;7.00;2.72;;;;;;;;;;5061090;28;20056;-66
2021/12/19 11:40:37;;;;;;;13.27;3.58;;;;;;;;;;5064971;28;20349;-66
2021/12/19 11:43:07;;;;;;;14.32;4.22;;;;;;;;;;5060134;28;20036;-66
2021/12/19 11:45:41;;;;;;;14.05;3.90;;;;;;;;;;5066286;28;20442;-66
2021/12/19 11:48:34;;;;;;;10.57;3.50;;;;;;;;;;5097244;28;20036;-66
2021/12/19 11:51:00;;;;;;;;;;;;;;;;;;5065162;28;20043;-66
2021/12/19 11:53:31;;;;;;;14.30;2.95;;;;;;;;;;5061835;28;19921;-66
2021/12/19 11:56:06;;;;;;;11.55;3.45;;;;;;;;;;5062609;28;20048;-66
2021/12/19 11:58:49;;;;;;;14.65;4.13;;;;;;;;;;5067849;28;20450;-65
2021/12/19 12:01:24;;;;;;;14.55;4.38;;;;;;;;;;5065523;28;20453;-65
2021/12/19 12:03:52;;;;;;;17.55;4.43;;;;;;;;;;5063292;28;20138;-66
2021/12/19 12:06:20;;;;;;;10.32;4.18;;;;;;;;;;5068920;28;20064;-65
2021/12/19 12:09:09;;;;;;;12.07;4.10;;;;;;;;;;5069787;28;20039;-66
2021/12/19 12:11:37;;;;;;;12.82;3.95;;;;;;;;;;5096089;28;20048;-66
2021/12/19 12:14:35;;;;;;;12.95;3.95;;;;;;;;;;5064842;28;20375;-66
2021/12/19 12:17:09;;;;;;;16.55;4.22;;;;;;;;;;5054235;28;20506;-66
2021/12/19 12:19:50;;;;;;;25.33;4.75;;;;;;;;;;5071196;28;20422;-66
2021/12/19 12:22:27;;;;;;;11.75;4.57;;;;;;;;;;5065925;28;20096;-66
2021/12/19 12:25:03;;;;;;;14.00;3.97;;;;;;;;;;5067292;28;20421;-65
2021/12/19 12:27:36;;;;;;;20.67;4.70;;;;;;;;;;5069846;28;20197;-66
2021/12/19 12:30:07;;;;;;;16.98;4.47;;;;;;;;;;5066953;28;20033;-66
2021/12/19 12:32:33;;;;;;;19.63;4.57;;;;;;;;;;5064005;28;20043;-66
2021/12/19 12:35:00;;;;;;;15.80;5.30;;;;;;;;;;5072243;28;20114;-65
2021/12/19 12:37:27;;;;;;;16.55;4.78;;;;;;;;;;5066580;28;20643;-66
2021/12/19 12:40:18;;;;;;;18.55;5.07;;;;;;;;;;5070877;28;20037;-65
2021/12/19 12:42:57;;;;;;;14.70;5.55;;;;;;;;;;5065496;28;20131;-66
2021/12/19 12:45:24;;;;;;;16.65;4.22;;;;;;;;;;5067124;28;20041;-66
2021/12/19 12:47:50;;;;;;;19.35;5.70;;;;;;;;;;5067924;28;20123;-66
2021/12/19 12:50:17;;;;;;;13.00;4.70;;;;;;;;;;5070762;28;20036;-66
2021/12/19 12:52:43;;;;;;;14.05;3.97;;;;;;;;;;5067989;28;20090;-66
2021/12/19 12:55:09;;;;;;;14.20;4.82;;;;;;;;;;5068695;28;20406;-65
2021/12/19 12:57:36;;;;;;;22.42;5.53;;;;;;;;;;5059920;28;20128;-66
2021/12/19 13:00:04;;;;;;;19.38;4.38;;;;;;;;;;5066439;28;20075;-65
2021/12/19 13:02:41;;;;;;;18.20;4.93;;;;;;;;;;5068548;28;20550;-66
2021/12/19 13:05:12;;;;;;;13.13;4.47;;;;;;;;;;5067608;28;20177;-66
2021/12/19 13:07:39;;;;;;;15.00;5.03;;;;;;;;;;5064874;28;20454;-66
2021/12/19 13:10:05;;;;;;;18.65;4.80;;;;;;;;;;5068634;28;20036;-66
2021/12/19 13:12:31;;;;;;;14.18;5.07;;;;;;;;;;5069336;28;20390;-66
2021/12/19 13:14:58;;;;;;;16.02;4.38;;;;;;;;;;5060679;28;20060;-66
2021/12/19 13:17:25;;;;;;;16.05;4.25;;;;;;;;;;5067920;28;20117;-66
2021/12/19 13:20:08;;;;;;;15.98;4.72;;;;;;;;;;5065896;28;20096;-66
2021/12/19 13:22:43;;;;;;;20.77;4.88;;;;;;;;;;5050030;28;20044;-66
2021/12/19 13:25:12;;;;;;;17.70;5.03;;;;;;;;;;5063844;28;20045;-66
2021/12/19 13:27:40;;;;;;;19.88;5.38;;;;;;;;;;5098917;28;20490;-66
2021/12/19 13:30:06;;;;;;;17.85;4.55;;;;;;;;;;5066001;28;20426;-66
2021/12/19 13:32:34;;;;;;;18.15;5.63;;;;;;;;;;5068835;28;20112;-65
2021/12/19 13:35:01;;;;;;;15.13;3.92;;;;;;;;;;5069281;28;20257;-66
2021/12/19 13:37:33;;;;;;;16.50;4.18;;;;;;;;;;5068289;28;20126;-66
2021/12/19 13:40:04;;;;;;;14.35;3.60;;;;;;;;;;5067605;28;20044;-66
2021/12/19 13:42:48;;;;;;;11.88;4.18;;;;;;;;;;5061066;28;20045;-65
2021/12/19 13:45:21;;;;;;;14.55;4.35;;;;;;;;;;5061464;28;20414;-67
2021/12/19 13:47:48;;;;;;;14.77;5.00;;;;;;;;;;5062524;28;20394;-66
2021/12/19 13:50:15;;;;;;;15.93;4.40;;;;;;;;;;5068739;28;20091;-66
2021/12/19 13:52:41;;;;;;;27.63;5.50;;;;;;;;;;5062346;28;20072;-66
2021/12/19 13:55:09;;;;;;;18.00;4.93;;;;;;;;;;5102296;27;20033;-66
2021/12/19 13:57:36;;;;;;;13.68;4.45;;;;;;;;;;5063906;28;20052;-66
2021/12/19 14:00:06;;;;;;;11.18;4.22;;;;;;;;;;5064001;28;20048;-66
2021/12/19 14:02:40;;;;;;;9.65;4.03;;;;;;;;;;5061376;28;20448;-66
2021/12/19 14:05:24;;;;;;;7.88;3.22;;;;;;;;;;5068827;28;20497;-66
2021/12/19 14:07:51;;;;;;;11.40;3.72;;;;;;;;;;5063430;28;20048;-66
2021/12/19 14:10:21;;;;;;;15.32;3.15;;;;;;;;;;5093995;27;20051;-66
2021/12/19 14:12:57;;;;;;;10.55;3.42;;;;;;;;;;5065833;28;20040;-66
2021/12/19 14:15:23;;;;;;;15.88;3.33;;;;;;;;;;5058587;28;20505;-65
2021/12/19 14:17:50;;;;;;;12.30;4.25;;;;;;;;;;5065991;28;20040;-66
2021/12/19 14:20:16;;;;;;;10.52;3.30;;;;;;;;;;5069927;28;20453;-66
2021/12/19 14:22:42;;;;;;;10.20;3.25;;;;;;;;;;5066589;28;20028;-66
2021/12/19 14:25:10;;;;;;;13.70;3.50;;;;;;;;;;5066947;28;20102;-66
2021/12/19 14:27:38;;;;;;;9.32;3.65;;;;;;;;;;5064273;28;20044;-66
2021/12/19 14:30:07;;;;;;;13.15;3.40;;;;;;;;;;5063556;28;20040;-65
2021/12/19 14:32:33;;;;;;;10.38;3.17;;;;;;;;;;5065207;28;20041;-66
2021/12/19 14:35:02;;;;;;;17.13;4.20;;;;;;;;;;5066485;28;20075;-66
2021/12/19 14:37:33;;;;;;;8.52;3.67;;;;;;;;;;5063207;28;20382;-66
2021/12/19 14:40:14;;;;;;;7.55;2.78;;;;;;;;;;5083000;28;20040;-66
2021/12/19 14:42:43;;;;;;;9.63;2.97;;;;;;;;;;5068394;28;20093;-65
2021/12/19 14:45:11;;;;;;;12.75;3.38;;;;;;;;;;5060801;28;20410;-65
2021/12/19 14:47:44;;;;;;;13.27;3.00;;;;;;;;;;5063887;28;20127;-66
2021/12/19 14:50:19;;;;;;;11.30;2.70;;;;;;;;;;5065736;28;20048;-66
2021/12/19 14:53:04;;;;;;;8.20;2.78;;;;;;;;;;5064719;28;20123;-66
2021/12/19 14:55:31;;;;;;;16.05;3.28;;;;;;;;;;5061314;28;20444;-65
2021/12/19 14:57:58;;;;;;;11.15;3.67;;;;;;;;;;5067162;28;20051;-66
2021/12/19 15:00:25;;;;;;;6.90;2.92;;;;;;;;;;5063734;28;20063;-65
2021/12/19 15:02:51;;;;;;;7.53;2.42;;;;;;;;;;5064859;28;20086;-66
2021/12/19 15:05:17;;;;;;;6.32;2.50;;;;;;;;;;5065681;28;20044;-66
2021/12/19 15:07:46;;;;;;;13.27;3.25;;;;;;;;;;5064233;28;20133;-65
2021/12/19 15:10:13;;;;;;;6.53;2.10;;;;;;;;;;5064471;28;20044;-66
2021/12/19 15:12:39;;;;;;;10.82;3.22;;;;;;;;;;5067101;28;20078;-66
2021/12/19 15:15:06;;;;;;;9.55;2.90;;;;;;;;;;5042791;28;20201;-66
2021/12/19 15:17:32;;;;;;;11.73;2.50;;;;;;;;;;5066905;28;20033;-66
2021/12/19 15:19:58;;;;;;;11.30;3.10;;;;;;;;;;5059396;28;20041;-65
2021/12/19 15:22:25;;;;;;;14.20;3.30;;;;;;;;;;5058461;28;20036;-65
2021/12/19 15:24:51;;;;;;;14.98;3.33;;;;;;;;;;5067987;28;20043;-66
2021/12/19 15:27:18;;;;;;;10.82;4.10;;;;;;;;;;5064839;28;20041;-65
2021/12/19 15:29:45;;;;;;;7.63;3.30;;;;;;;;;;5060121;28;20051;-66
2021/12/19 15:32:12;;;;;;;11.38;3.45;;;;;;;;;;5062516;28;20040;-66
2021/12/19 15:34:40;;;;;;;12.25;3.42;;;;;;;;;;5062012;28;20146;-66
2021/12/19 15:37:07;;;;;;;11.70;3.40;;;;;;;;;;5048708;28;1166543;-66
2021/12/19 15:39:33;;;;;;;11.48;3.58;;;;;;;;;;5062822;28;20044;-66
2021/12/19 15:41:59;;;;;;;12.13;2.67;;;;;;;;;;5064766;28;20056;-66
2021/12/19 15:50:27;;;;;;;7.97;2.25;;;;;;;;;;5056118;28;20044;-65
2021/12/19 15:52:53;;;;;;;3.35;1.73;;;;;;;;;;5056176;28;20459;-66